Time;durP1;ratioP1;P1;durP2;ratioP2;P2;SDS_P1;SDS_P2;PMS_P1;PMS_P2;Temp;Humidity;BMP_temperature;BMP_pressure;BME280_temperature;BME280_humidity;BME280_pressure;Samples;Min_cycle;Max_cycle;Signal;HPM_P1;HPM_P2
2023/07/06 00:01:41;;;;;;;3.92;0.55;;;16.80;99.90;;;;;;4378325;32;20182;-75
2023/07/06 00:04:07;;;;;;;0.65;0.47;;;16.60;99.90;;;;;;4379561;32;20093;-75
2023/07/06 00:06:32;;;;;;;0.30;0.30;;;16.60;99.90;;;;;;4378088;32;20128;-75
2023/07/06 00:09:00;;;;;;;0.40;0.40;;;16.50;99.90;;;;;;4378331;32;20070;-74
2023/07/06 00:11:36;;;;;;;0.40;0.40;;;16.40;99.90;;;;;;4377145;32;20066;-75
2023/07/06 00:14:02;;;;;;;8.57;1.85;;;16.30;99.90;;;;;;4375041;32;20121;-74
2023/07/06 00:16:28;;;;;;;0.40;0.40;;;16.20;99.90;;;;;;4379948;32;20086;-75
2023/07/06 00:18:53;;;;;;;0.37;0.37;;;16.20;99.90;;;;;;4378894;32;20081;-74
2023/07/06 00:21:19;;;;;;;0.30;0.30;;;16.20;99.90;;;;;;4379075;32;20496;-74
2023/07/06 00:23:44;;;;;;;1.05;0.22;;;16.10;99.90;;;;;;4380152;32;20087;-74
2023/07/06 00:26:10;;;;;;;0.40;0.40;;;16.10;99.90;;;;;;4381202;32;20073;-74
2023/07/06 00:28:36;;;;;;;1.35;0.40;;;16.20;99.90;;;;;;4379232;32;20074;-74
2023/07/06 00:31:10;;;;;;;0.30;0.30;;;16.20;99.90;;;;;;4379774;32;20422;-75
2023/07/06 00:33:36;;;;;;;0.20;0.20;;;16.30;99.90;;;;;;4379129;32;20439;-74
2023/07/06 00:36:04;;;;;;;0.30;0.30;;;16.30;99.90;;;;;;4379276;32;20578;-74
2023/07/06 00:38:29;;;;;;;2.30;1.30;;;16.20;99.90;;;;;;4379995;32;20077;-75
2023/07/06 00:40:57;;;;;;;0.47;0.47;;;16.10;99.90;;;;;;4378151;32;20099;-75
2023/07/06 00:43:27;;;;;;;1.90;0.28;;;16.00;99.90;;;;;;4378161;32;20149;-75
2023/07/06 00:45:57;;;;;;;1.30;0.75;;;15.90;99.90;;;;;;4376777;32;20086;-74
2023/07/06 00:48:33;;;;;;;0.50;0.50;;;15.90;99.90;;;;;;4379018;32;21157;-75
2023/07/06 00:51:12;;;;;;;0.30;0.30;;;15.90;99.90;;;;;;4379314;32;20098;-75
2023/07/06 00:53:42;;;;;;;0.88;0.50;;;15.90;99.90;;;;;;4377038;32;20542;-75
2023/07/06 00:56:11;;;;;;;0.43;0.43;;;15.80;99.90;;;;;;4378975;32;20110;-75
2023/07/06 00:58:45;;;;;;;1.60;0.88;;;15.80;99.90;;;;;;4379681;32;20099;-75
2023/07/06 01:01:12;;;;;;;0.37;0.35;;;15.80;99.90;;;;;;4378759;32;20644;-75
2023/07/06 01:03:44;;;;;;;0.20;0.20;;;15.70;99.90;;;;;;4379833;32;20082;-75
2023/07/06 01:06:15;;;;;;;0.50;0.50;;;15.80;99.90;;;;;;4378681;32;20094;-74
2023/07/06 01:08:41;;;;;;;0.35;0.35;;;15.90;99.90;;;;;;4378033;32;20583;-75
2023/07/06 01:11:09;;;;;;;0.25;0.25;;;15.80;99.90;;;;;;4379078;32;20090;-75
2023/07/06 01:13:35;;;;;;;0.45;0.43;;;15.60;99.90;;;;;;4378407;32;20546;-75
2023/07/06 01:16:12;;;;;;;0.30;0.30;;;15.60;99.90;;;;;;4377381;32;20146;-74
2023/07/06 01:18:48;;;;;;;0.75;0.50;;;15.50;99.90;;;;;;4377794;32;20529;-74
2023/07/06 01:21:25;;;;;;;0.30;0.30;;;15.40;99.90;;;;;;4376868;32;20095;-75
2023/07/06 01:24:10;;;;;;;0.30;0.30;;;15.30;99.90;;;;;;4378994;32;20115;-75
2023/07/06 01:26:53;;;;;;;0.60;0.60;;;15.30;99.90;;;;;;4380176;32;20701;-75
2023/07/06 01:29:36;;;;;;;0.30;0.30;;;15.30;99.90;;;;;;4381131;32;20121;-74
2023/07/06 01:32:07;;;;;;;0.40;0.40;;;15.30;99.90;;;;;;4378465;32;20107;-75
2023/07/06 01:34:53;;;;;;;0.30;0.30;;;15.30;99.90;;;;;;4382284;32;20090;-74
2023/07/06 01:37:23;;;;;;;1.12;0.50;;;15.40;99.90;;;;;;4380362;32;20082;-74
2023/07/06 01:39:49;;;;;;;0.50;0.50;;;15.30;99.90;;;;;;4382859;32;20062;-73
2023/07/06 01:42:25;;;;;;;0.30;0.30;;;15.30;99.90;;;;;;4382027;32;20114;-75
2023/07/06 01:44:52;;;;;;;1.10;0.75;;;15.30;99.90;;;;;;4380830;32;20133;-74
2023/07/06 01:47:19;;;;;;;1.27;0.93;;;15.30;99.90;;;;;;4382721;32;20387;-75
2023/07/06 01:49:45;;;;;;;1.17;0.60;;;15.20;99.90;;;;;;4380945;32;20074;-74
2023/07/06 01:52:19;;;;;;;0.40;0.40;;;15.20;99.90;;;;;;4380439;32;20145;-74
2023/07/06 01:54:54;;;;;;;4.78;0.60;;;15.00;99.90;;;;;;4382158;32;20134;-75
2023/07/06 01:57:27;;;;;;;0.60;0.60;;;15.00;99.90;;;;;;4380783;32;20471;-74
2023/07/06 01:59:57;;;;;;;0.30;0.30;;;15.00;99.90;;;;;;4380241;32;20541;-75
2023/07/06 02:02:23;;;;;;;0.30;0.30;;;15.10;99.90;;;;;;4378973;32;20075;-74
2023/07/06 02:04:51;;;;;;;0.30;0.30;;;15.20;99.90;;;;;;4382688;32;20067;-74
2023/07/06 02:07:20;;;;;;;1.45;0.70;;;15.30;99.90;;;;;;4381322;32;20351;-74
2023/07/06 02:09:47;;;;;;;0.82;0.60;;;15.30;99.90;;;;;;4379758;32;20102;-74
2023/07/06 02:12:13;;;;;;;0.35;0.35;;;15.20;99.90;;;;;;4379591;32;20079;-74
2023/07/06 02:14:40;;;;;;;0.30;0.30;;;15.30;99.90;;;;;;4381946;32;20549;-75
2023/07/06 02:17:07;;;;;;;0.40;0.40;;;15.30;99.90;;;;;;4379038;32;20234;-74
2023/07/06 02:19:35;;;;;;;1.02;0.80;;;15.10;99.90;;;;;;4381267;32;20428;-74
2023/07/06 02:22:03;;;;;;;0.30;0.30;;;15.20;99.90;;;;;;4379428;32;20109;-74
2023/07/06 02:24:28;;;;;;;0.40;0.40;;;15.20;99.90;;;;;;4382182;32;20099;-74
2023/07/06 02:26:55;;;;;;;0.40;0.40;;;15.20;99.90;;;;;;4379392;32;20090;-75
2023/07/06 02:29:22;;;;;;;1.00;0.52;;;15.30;99.90;;;;;;4381841;32;20544;-74
2023/07/06 02:31:48;;;;;;;0.30;0.30;;;15.40;99.90;;;;;;4381515;32;20071;-75
2023/07/06 02:34:14;;;;;;;1.12;0.60;;;15.30;99.90;;;;;;4381289;32;20440;-74
2023/07/06 02:36:40;;;;;;;0.62;0.62;;;15.30;99.90;;;;;;4381272;32;20082;-76
2023/07/06 02:39:06;;;;;;;0.47;0.47;;;15.20;99.90;;;;;;4382898;32;20093;-74
2023/07/06 02:41:32;;;;;;;0.40;0.40;;;15.20;99.90;;;;;;4382479;32;20066;-74
2023/07/06 02:43:58;;;;;;;0.30;0.30;;;15.20;99.90;;;;;;4381115;32;20129;-74
2023/07/06 02:46:23;;;;;;;2.28;1.08;;;15.10;99.90;;;;;;4381618;32;20094;-74
2023/07/06 02:48:50;;;;;;;0.77;0.47;;;15.10;99.90;;;;;;4381233;32;20102;-74
2023/07/06 02:51:16;;;;;;;0.57;0.57;;;15.00;99.90;;;;;;4379299;32;20681;-74
2023/07/06 02:53:41;;;;;;;0.50;0.50;;;14.90;99.90;;;;;;4381368;32;20432;-78
2023/07/06 02:56:07;;;;;;;0.50;0.50;;;14.70;99.90;;;;;;4378381;32;20075;-77
2023/07/06 02:58:34;;;;;;;0.40;0.40;;;14.70;99.90;;;;;;4378975;32;20129;-76
2023/07/06 03:01:00;;;;;;;0.20;0.20;;;14.70;99.90;;;;;;4380871;32;20447;-79
2023/07/06 03:03:26;;;;;;;0.98;0.50;;;14.80;99.90;;;;;;4379902;32;20110;-77
2023/07/06 03:05:52;;;;;;;0.50;0.50;;;14.70;99.90;;;;;;4381575;32;20090;-78
2023/07/06 03:08:19;;;;;;;0.40;0.40;;;14.60;99.90;;;;;;4380487;32;20095;-77
2023/07/06 03:10:46;;;;;;;2.15;0.60;;;14.40;99.90;;;;;;4378190;32;20175;-77
2023/07/06 03:13:13;;;;;;;0.62;0.62;;;14.40;99.90;;;;;;4377401;32;20114;-76
2023/07/06 03:15:40;;;;;;;0.32;0.32;;;14.40;99.90;;;;;;4382265;32;20112;-78
2023/07/06 03:18:06;;;;;;;0.30;0.30;;;14.30;99.90;;;;;;4383875;32;20655;-77
2023/07/06 03:20:35;;;;;;;1.02;0.82;;;14.40;99.90;;;;;;4382058;32;20081;-77
2023/07/06 03:23:02;;;;;;;0.40;0.40;;;14.40;99.90;;;;;;4381766;32;21696;-78
2023/07/06 03:25:28;;;;;;;0.68;0.68;;;14.30;99.90;;;;;;4382693;32;20062;-79
2023/07/06 03:27:56;;;;;;;0.43;0.43;;;14.30;99.90;;;;;;4379525;32;20066;-78
2023/07/06 03:30:23;;;;;;;0.20;0.20;;;14.40;99.90;;;;;;4380399;32;20232;-77
2023/07/06 03:32:49;;;;;;;0.20;0.20;;;14.60;99.90;;;;;;4377969;32;20090;-78
2023/07/06 03:35:15;;;;;;;2.35;1.33;;;14.60;99.90;;;;;;4378771;32;20130;-78
2023/07/06 03:37:42;;;;;;;1.50;0.50;;;14.60;99.90;;;;;;4378791;32;20134;-77
2023/07/06 03:40:10;;;;;;;2.10;0.50;;;14.70;99.90;;;;;;4378984;32;20304;-78
2023/07/06 03:42:38;;;;;;;0.40;0.40;;;14.60;99.90;;;;;;4379207;32;20099;-78
2023/07/06 03:45:05;;;;;;;0.32;0.32;;;14.50;99.90;;;;;;4378802;32;20141;-77
2023/07/06 03:47:33;;;;;;;0.47;0.47;;;14.40;99.90;;;;;;4376385;32;21340;-78
2023/07/06 03:49:59;;;;;;;0.40;0.40;;;14.40;99.90;;;;;;4380514;32;20084;-78
2023/07/06 03:52:24;;;;;;;0.30;0.30;;;14.50;99.90;;;;;;4377810;32;20185;-77
2023/07/06 03:54:50;;;;;;;0.65;0.50;;;14.50;99.90;;;;;;4378718;32;20122;-76
2023/07/06 03:57:16;;;;;;;0.57;0.57;;;14.50;99.90;;;;;;4380602;32;20118;-79
2023/07/06 03:59:42;;;;;;;10.52;0.93;;;14.60;99.90;;;;;;4380436;32;20089;-78
2023/07/06 04:02:09;;;;;;;0.30;0.30;;;14.70;99.90;;;;;;4376549;32;20448;-78
2023/07/06 04:04:35;;;;;;;0.40;0.40;;;14.80;99.90;;;;;;4381649;32;20070;-77
2023/07/06 04:07:02;;;;;;;0.50;0.50;;;14.70;99.90;;;;;;4378488;32;20126;-77
2023/07/06 04:09:28;;;;;;;0.55;0.50;;;14.80;99.90;;;;;;4378499;32;20086;-77
2023/07/06 04:11:54;;;;;;;0.50;0.50;;;14.60;99.90;;;;;;4380171;32;20097;-77
2023/07/06 04:14:24;;;;;;;0.75;0.55;;;14.70;99.90;;;;;;4379999;32;20089;-78
2023/07/06 04:16:51;;;;;;;0.50;0.50;;;14.70;99.90;;;;;;4376040;32;20074;-77
2023/07/06 04:19:16;;;;;;;0.40;0.40;;;14.70;99.90;;;;;;4378334;32;20146;-78
2023/07/06 04:21:42;;;;;;;0.40;0.40;;;14.80;99.90;;;;;;4371222;32;20153;-77
2023/07/06 04:24:07;;;;;;;0.40;0.40;;;14.90;99.90;;;;;;4377030;32;20078;-78
2023/07/06 04:26:33;;;;;;;0.25;0.25;;;14.70;99.90;;;;;;4379746;32;20153;-80
2023/07/06 04:28:58;;;;;;;0.35;0.35;;;14.70;99.90;;;;;;4380401;32;20082;-77
2023/07/06 04:31:24;;;;;;;0.50;0.50;;;14.70;99.90;;;;;;4378452;32;20066;-78
2023/07/06 04:33:49;;;;;;;0.62;0.62;;;14.90;99.90;;;;;;4377893;32;20089;-78
2023/07/06 04:36:17;;;;;;;0.40;0.40;;;15.00;99.90;;;;;;4377468;32;20090;-77
2023/07/06 04:38:43;;;;;;;2.60;1.12;;;15.00;99.90;;;;;;4378068;32;20411;-78
2023/07/06 04:41:12;;;;;;;0.43;0.43;;;15.00;99.90;;;;;;4378676;32;20107;-77
2023/07/06 04:43:37;;;;;;;0.50;0.50;;;15.10;99.90;;;;;;4379123;32;20566;-77
2023/07/06 04:46:03;;;;;;;0.43;0.43;;;15.20;99.90;;;;;;4377565;32;20166;-79
2023/07/06 04:48:32;;;;;;;0.93;0.70;;;15.20;99.90;;;;;;4377383;32;20530;-79
2023/07/06 04:50:59;;;;;;;0.43;0.43;;;15.20;99.90;;;;;;4377868;32;20101;-78
2023/07/06 04:53:25;;;;;;;1.15;0.77;;;15.30;99.90;;;;;;4376559;32;20434;-79
2023/07/06 04:55:51;;;;;;;0.95;0.52;;;15.30;99.90;;;;;;4376820;32;20102;-79
2023/07/06 04:58:16;;;;;;;3.70;0.98;;;15.40;99.90;;;;;;4376133;32;20520;-78
2023/07/06 05:00:45;;;;;;;16.55;0.45;;;15.50;99.90;;;;;;4377519;32;20103;-79
2023/07/06 05:03:12;;;;;;;0.40;0.40;;;15.50;99.90;;;;;;4378461;32;20137;-80
2023/07/06 05:05:42;;;;;;;0.37;0.37;;;15.60;99.90;;;;;;4377392;32;20134;-81
2023/07/06 05:08:10;;;;;;;1.05;0.85;;;15.70;99.90;;;;;;4379984;32;20070;-79
2023/07/06 05:10:36;;;;;;;0.30;0.30;;;15.70;99.90;;;;;;4380177;32;20125;-78
2023/07/06 05:13:04;;;;;;;27.10;0.57;;;15.70;99.90;;;;;;4378536;32;20098;-77
2023/07/06 05:15:29;;;;;;;0.70;0.70;;;15.80;99.90;;;;;;4379834;32;20441;-77
2023/07/06 05:17:55;;;;;;;0.60;0.60;;;15.80;99.90;;;;;;4369370;32;20097;-77
2023/07/06 05:20:22;;;;;;;0.30;0.30;;;15.80;99.90;;;;;;4379271;32;20070;-79
2023/07/06 05:22:48;;;;;;;0.68;0.57;;;15.80;99.90;;;;;;4381151;32;20066;-79
2023/07/06 05:25:17;;;;;;;0.98;0.93;;;15.90;99.90;;;;;;4378307;32;20095;-79
2023/07/06 05:27:44;;;;;;;0.65;0.50;;;16.00;99.90;;;;;;4363710;32;20140;-77
2023/07/06 05:30:10;;;;;;;0.80;0.80;;;16.00;99.90;;;;;;4368728;32;20454;-76
2023/07/06 05:32:36;;;;;;;0.30;0.30;;;16.00;99.90;;;;;;4355846;32;20251;-77
2023/07/06 05:35:02;;;;;;;1.48;0.40;;;16.10;99.90;;;;;;4376639;32;20105;-78
2023/07/06 05:37:29;;;;;;;0.40;0.40;;;16.10;99.90;;;;;;4373561;32;20146;-77
2023/07/06 05:39:55;;;;;;;0.30;0.30;;;16.20;99.90;;;;;;4378788;32;20133;-79
2023/07/06 05:42:23;;;;;;;1.08;0.82;;;16.30;99.90;;;;;;4381988;32;20186;-79
2023/07/06 05:44:50;;;;;;;0.55;0.55;;;16.40;99.90;;;;;;4376332;32;20082;-78
2023/07/06 05:47:16;;;;;;;0.40;0.40;;;16.30;99.90;;;;;;4379017;32;20082;-77
2023/07/06 05:49:43;;;;;;;0.50;0.50;;;16.40;99.90;;;;;;4379602;32;20120;-80
2023/07/06 05:52:08;;;;;;;0.40;0.40;;;16.40;99.90;;;;;;4380417;32;20476;-79
2023/07/06 05:54:34;;;;;;;0.32;0.32;;;16.50;99.90;;;;;;4379922;32;20083;-79
2023/07/06 05:57:02;;;;;;;0.30;0.30;;;16.50;99.90;;;;;;4373757;32;20089;-78
2023/07/06 05:59:29;;;;;;;0.25;0.25;;;16.60;99.90;;;;;;4374967;32;20110;-78
2023/07/06 06:01:57;;;;;;;0.40;0.40;;;16.60;99.90;;;;;;4378303;32;20106;-78
2023/07/06 06:04:23;;;;;;;0.40;0.40;;;16.70;99.90;;;;;;4377755;32;20067;-76
2023/07/06 06:06:54;;;;;;;1.65;0.50;;;16.80;99.90;;;;;;4365735;32;20079;-77
2023/07/06 06:09:20;;;;;;;;;;;16.80;99.90;;;;;;4377181;32;20094;-77
2023/07/06 06:11:46;;;;;;;0.55;0.50;;;16.90;99.90;;;;;;4378221;32;19977;-77
2023/07/06 06:14:12;;;;;;;0.37;0.37;;;16.90;99.90;;;;;;4381806;32;20913;-79
2023/07/06 06:16:39;;;;;;;0.40;0.40;;;16.90;99.90;;;;;;4378780;32;20098;-78
2023/07/06 06:19:04;;;;;;;0.40;0.40;;;17.00;99.90;;;;;;4380926;32;20465;-78
2023/07/06 06:21:30;;;;;;;0.30;0.30;;;17.10;99.90;;;;;;4380671;32;20107;-77
2023/07/06 06:23:57;;;;;;;0.30;0.30;;;17.10;99.90;;;;;;4376607;32;20206;-78
2023/07/06 06:26:23;;;;;;;0.30;0.30;;;17.20;99.90;;;;;;4376701;32;20102;-78
2023/07/06 06:28:49;;;;;;;0.50;0.50;;;17.30;99.90;;;;;;4381065;32;20062;-77
2023/07/06 06:31:14;;;;;;;0.47;0.47;;;17.30;99.90;;;;;;4378553;32;20070;-77
2023/07/06 06:33:40;;;;;;;0.50;0.50;;;17.30;99.90;;;;;;4380551;32;20113;-79
2023/07/06 06:36:07;;;;;;;0.30;0.30;;;17.40;99.90;;;;;;4377947;32;20550;-79
2023/07/06 06:38:34;;;;;;;0.43;0.40;;;17.50;99.90;;;;;;4378768;32;20125;-77
2023/07/06 06:41:02;;;;;;;0.30;0.30;;;17.40;99.90;;;;;;4378930;32;20102;-76
2023/07/06 06:43:28;;;;;;;0.30;0.30;;;17.50;99.90;;;;;;4378457;32;20141;-79
2023/07/06 06:45:54;;;;;;;0.22;0.22;;;17.60;99.90;;;;;;4379381;32;20070;-78
2023/07/06 06:48:20;;;;;;;0.45;0.45;;;17.60;99.90;;;;;;4377026;32;20164;-75
2023/07/06 06:50:45;;;;;;;0.98;0.95;;;17.70;99.90;;;;;;4377181;32;20054;-76
2023/07/06 06:53:11;;;;;;;0.77;0.77;;;17.70;99.90;;;;;;4374577;32;20194;-78
2023/07/06 06:55:38;;;;;;;0.30;0.30;;;17.70;99.90;;;;;;4381519;32;20090;-78
2023/07/06 06:58:03;;;;;;;0.22;0.22;;;17.80;99.90;;;;;;4379278;32;20463;-78
2023/07/06 07:00:29;;;;;;;0.30;0.30;;;17.90;99.90;;;;;;4380003;32;20079;-77
2023/07/06 07:02:57;;;;;;;0.30;0.30;;;18.00;99.90;;;;;;4378102;32;20083;-79
2023/07/06 07:05:23;;;;;;;0.40;0.40;;;18.10;99.90;;;;;;4376003;32;20090;-75
2023/07/06 07:07:49;;;;;;;0.30;0.30;;;18.00;99.90;;;;;;4378178;32;20102;-77
2023/07/06 07:10:15;;;;;;;0.30;0.30;;;18.00;99.90;;;;;;4381190;32;20086;-78
2023/07/06 07:12:42;;;;;;;0.37;0.37;;;18.10;99.90;;;;;;4380462;32;20444;-79
2023/07/06 07:15:10;;;;;;;0.40;0.40;;;18.00;99.90;;;;;;4378044;32;20071;-77
2023/07/06 07:17:37;;;;;;;0.80;0.55;;;18.10;99.90;;;;;;4375520;32;22287;-77
2023/07/06 07:20:03;;;;;;;0.20;0.20;;;18.20;99.90;;;;;;4375167;32;20067;-77
2023/07/06 07:22:28;;;;;;;0.30;0.30;;;18.20;99.90;;;;;;4376334;32;20073;-77
2023/07/06 07:24:54;;;;;;;0.30;0.30;;;18.30;99.90;;;;;;4377134;32;20083;-77
2023/07/06 07:27:20;;;;;;;0.30;0.30;;;18.30;99.90;;;;;;4377403;32;20105;-77
2023/07/06 07:29:47;;;;;;;0.60;0.60;;;18.50;99.90;;;;;;4379025;32;20180;-75
2023/07/06 07:32:13;;;;;;;0.30;0.30;;;18.50;99.90;;;;;;4375944;32;20151;-76
2023/07/06 07:34:40;;;;;;;0.40;0.40;;;18.50;99.90;;;;;;4372308;32;20062;-78
2023/07/06 07:37:10;;;;;;;0.30;0.30;;;18.50;99.90;;;;;;4378190;32;20066;-78
2023/07/06 07:39:36;;;;;;;0.32;0.32;;;18.60;99.90;;;;;;4378809;32;20099;-77
2023/07/06 07:42:03;;;;;;;0.30;0.30;;;18.80;99.90;;;;;;4377772;32;20069;-78
2023/07/06 07:44:29;;;;;;;0.30;0.30;;;19.10;99.90;;;;;;4376193;32;20098;-76
2023/07/06 07:46:55;;;;;;;0.40;0.40;;;19.20;99.90;;;;;;4374053;32;20074;-78
2023/07/06 07:49:21;;;;;;;0.22;0.22;;;19.10;99.90;;;;;;4376352;32;20079;-74
2023/07/06 07:51:46;;;;;;;0.20;0.20;;;19.20;99.90;;;;;;4371726;32;20091;-77
2023/07/06 07:54:12;;;;;;;0.30;0.30;;;19.40;99.90;;;;;;4374953;32;20102;-78
2023/07/06 07:56:38;;;;;;;0.30;0.30;;;19.60;99.90;;;;;;4378741;32;20414;-77
2023/07/06 07:59:03;;;;;;;0.30;0.30;;;19.70;99.90;;;;;;4375417;32;20095;-76
2023/07/06 08:01:30;;;;;;;0.55;0.55;;;19.70;99.90;;;;;;4374103;32;20082;-78
2023/07/06 08:03:57;;;;;;;0.30;0.30;;;19.80;99.90;;;;;;4375125;32;20175;-77
2023/07/06 08:06:22;;;;;;;1.45;0.52;;;20.00;99.90;;;;;;4374502;32;20169;-77
2023/07/06 08:08:48;;;;;;;0.40;0.40;;;20.30;99.90;;;;;;4375975;32;20085;-78
2023/07/06 08:11:16;;;;;;;0.20;0.20;;;20.30;99.90;;;;;;4376985;32;21155;-77
2023/07/06 08:13:45;;;;;;;0.22;0.22;;;20.30;99.90;;;;;;4373600;32;20886;-77
2023/07/06 08:16:12;;;;;;;0.22;0.22;;;20.20;99.90;;;;;;4372675;32;20098;-76
2023/07/06 08:18:38;;;;;;;0.45;0.45;;;20.00;99.90;;;;;;4376459;32;20105;-77
2023/07/06 08:21:05;;;;;;;0.40;0.40;;;19.80;99.90;;;;;;4374131;32;20086;-77
2023/07/06 08:23:31;;;;;;;0.20;0.20;;;20.00;99.90;;;;;;4371787;32;20663;-77
2023/07/06 08:25:57;;;;;;;0.20;0.20;;;19.90;99.90;;;;;;4375077;32;20171;-77
2023/07/06 08:28:31;;;;;;;0.30;0.30;;;20.10;99.70;;;;;;4377777;32;20109;-77
2023/07/06 08:31:01;;;;;;;0.20;0.20;;;20.10;99.80;;;;;;4379240;32;20728;-77
2023/07/06 08:33:27;;;;;;;0.33;0.33;;;20.00;99.30;;;;;;4378677;32;20061;-78
2023/07/06 08:35:53;;;;;;;0.22;0.22;;;20.10;99.90;;;;;;4379878;32;20135;-76
2023/07/06 08:38:19;;;;;;;0.30;0.30;;;20.30;99.90;;;;;;4376856;32;20398;-77
2023/07/06 08:40:48;;;;;;;0.20;0.20;;;20.50;99.80;;;;;;4375712;32;20360;-78
2023/07/06 08:43:19;;;;;;;0.50;0.50;;;20.60;99.70;;;;;;4375789;32;20064;-78
2023/07/06 08:45:48;;;;;;;1.27;0.85;;;20.80;99.10;;;;;;4375201;32;20066;-76
2023/07/06 08:48:17;;;;;;;0.30;0.30;;;20.90;98.90;;;;;;4378137;32;20090;-78
2023/07/06 08:50:48;;;;;;;0.20;0.20;;;21.00;99.20;;;;;;4378287;32;20471;-78
2023/07/06 08:53:14;;;;;;;0.35;0.35;;;21.10;99.10;;;;;;4376004;32;20132;-78
2023/07/06 08:55:43;;;;;;;0.30;0.30;;;21.00;99.50;;;;;;4377306;32;20099;-77
2023/07/06 08:58:14;;;;;;;0.30;0.30;;;20.90;99.50;;;;;;4377031;32;20066;-78
2023/07/06 09:00:40;;;;;;;0.30;0.30;;;21.10;99.30;;;;;;4380673;32;20070;-77
2023/07/06 09:03:08;;;;;;;0.40;0.40;;;21.00;98.80;;;;;;4377113;32;20082;-77
2023/07/06 09:05:37;;;;;;;2.53;0.65;;;21.00;99.70;;;;;;4378362;32;20087;-76
2023/07/06 09:08:03;;;;;;;0.30;0.30;;;21.20;99.00;;;;;;4375059;32;20136;-77
2023/07/06 09:10:29;;;;;;;0.90;0.68;;;21.30;98.00;;;;;;4374716;32;20091;-76
2023/07/06 09:13:11;;;;;;;0.30;0.30;;;21.30;98.60;;;;;;4377550;32;20057;-78
2023/07/06 09:15:37;;;;;;;0.20;0.20;;;21.10;99.10;;;;;;4377566;32;20102;-76
2023/07/06 09:18:03;;;;;;;0.30;0.30;;;21.10;99.90;;;;;;4372887;32;20083;-77
2023/07/06 09:20:29;;;;;;;0.47;0.47;;;20.90;99.60;;;;;;4374020;32;20074;-78
2023/07/06 09:22:55;;;;;;;0.20;0.20;;;20.60;99.60;;;;;;4375343;32;20455;-77
2023/07/06 09:25:35;;;;;;;0.40;0.40;;;20.30;99.90;;;;;;4376576;32;20403;-77
2023/07/06 09:28:01;;;;;;;0.30;0.30;;;20.20;99.90;;;;;;4378802;32;20111;-78
2023/07/06 09:30:33;;;;;;;5.68;0.50;;;20.00;99.90;;;;;;4375973;32;20082;-77
2023/07/06 09:33:05;;;;;;;4.20;0.95;;;20.10;99.90;;;;;;4374249;32;20079;-76
2023/07/06 09:35:35;;;;;;;0.28;0.28;;;20.30;99.90;;;;;;4375530;32;20558;-77
2023/07/06 09:38:02;;;;;;;0.30;0.30;;;20.50;99.90;;;;;;4378332;32;20164;-79
2023/07/06 09:40:29;;;;;;;0.30;0.30;;;20.90;99.90;;;;;;4372080;32;20066;-78
2023/07/06 09:42:54;;;;;;;0.20;0.20;;;21.20;99.20;;;;;;4372964;32;20063;-78
2023/07/06 09:45:26;;;;;;;0.30;0.30;;;21.40;99.30;;;;;;4376409;32;20163;-77
2023/07/06 09:47:57;;;;;;;0.60;0.60;;;21.60;99.20;;;;;;4376451;32;20094;-77
2023/07/06 09:50:35;;;;;;;0.17;0.17;;;21.70;97.60;;;;;;4378803;32;20075;-77
2023/07/06 09:53:07;;;;;;;0.20;0.20;;;22.00;98.20;;;;;;4379728;32;20078;-78
2023/07/06 09:55:32;;;;;;;0.20;0.20;;;21.90;98.90;;;;;;4378287;32;20087;-78
2023/07/06 09:57:59;;;;;;;0.30;0.30;;;21.90;98.70;;;;;;4377479;32;20097;-77
2023/07/06 10:00:36;;;;;;;0.20;0.20;;;21.80;97.90;;;;;;4380366;32;20086;-78
2023/07/06 10:03:28;;;;;;;0.40;0.40;;;21.70;98.30;;;;;;4377743;32;20402;-72
2023/07/06 10:06:07;;;;;;;0.43;0.28;;;21.50;98.50;;;;;;4377730;32;20574;-74
2023/07/06 10:08:40;;;;;;;0.30;0.30;;;21.40;98.80;;;;;;4379383;32;20075;-73
2023/07/06 10:11:24;;;;;;;0.62;0.62;;;21.40;98.50;;;;;;4380704;32;20070;-73
2023/07/06 10:14:01;;;;;;;0.20;0.20;;;21.40;98.60;;;;;;4379397;32;20134;-72
2023/07/06 10:17:07;;;;;;;0.32;0.30;;;21.50;99.20;;;;;;4378745;32;20323;-73
2023/07/06 10:19:49;;;;;;;0.20;0.20;;;22.00;98.20;;;;;;4371729;32;20102;-72
2023/07/06 10:22:26;;;;;;;0.20;0.20;;;21.60;97.40;;;;;;4375462;32;20332;-73
2023/07/06 10:25:18;;;;;;;0.20;0.20;;;21.30;98.00;;;;;;4377492;32;20138;-72
2023/07/06 10:27:49;;;;;;;0.47;0.47;;;21.10;98.20;;;;;;4374696;32;20074;-72
2023/07/06 10:30:25;;;;;;;0.28;0.28;;;20.90;99.40;;;;;;4378532;32;21363;-75
2023/07/06 10:32:55;;;;;;;0.20;0.20;;;20.80;98.50;;;;;;4375243;32;20086;-73
2023/07/06 10:35:28;;;;;;;0.25;0.25;;;21.00;98.50;;;;;;4379638;32;20126;-75
2023/07/06 10:37:55;;;;;;;0.28;0.28;;;21.10;98.40;;;;;;4379535;32;20107;-74
2023/07/06 10:40:26;;;;;;;0.40;0.40;;;21.10;97.90;;;;;;4379377;32;20113;-73
2023/07/06 10:43:13;;;;;;;0.30;0.30;;;21.00;98.60;;;;;;4378822;32;20093;-72
2023/07/06 10:45:42;;;;;;;0.30;0.30;;;20.90;98.90;;;;;;4382088;32;20093;-72
2023/07/06 10:48:14;;;;;;;4.30;0.30;;;20.90;99.00;;;;;;4376894;32;20125;-72
2023/07/06 10:50:45;;;;;;;0.30;0.30;;;20.90;99.20;;;;;;4377962;32;20161;-73
2023/07/06 10:53:35;;;;;;;0.20;0.20;;;20.90;99.50;;;;;;4379125;32;20111;-75
2023/07/06 10:56:03;;;;;;;0.20;0.20;;;20.90;99.00;;;;;;4375476;32;20826;-73
2023/07/06 10:58:32;;;;;;;0.28;0.28;;;21.40;99.90;;;;;;4380941;32;20850;-73
2023/07/06 11:01:03;;;;;;;0.30;0.30;;;22.10;98.00;;;;;;4378739;32;20070;-76
2023/07/06 11:03:31;;;;;;;0.30;0.30;;;22.60;96.90;;;;;;4377315;32;20066;-72
2023/07/06 11:06:06;;;;;;;1.48;0.50;;;22.60;97.10;;;;;;4377621;32;20110;-76
2023/07/06 11:09:08;;;;;;;0.20;0.20;;;22.80;96.20;;;;;;4381694;32;20077;-73
2023/07/06 11:11:40;;;;;;;0.30;0.30;;;22.90;97.30;;;;;;4376820;32;20074;-73
2023/07/06 11:14:22;;;;;;;0.30;0.30;;;22.80;96.40;;;;;;4377970;32;20082;-74
2023/07/06 11:16:55;;;;;;;13.75;0.70;;;22.90;96.70;;;;;;4377649;32;20105;-73
2023/07/06 11:19:27;;;;;;;0.20;0.20;;;22.80;96.50;;;;;;4378297;32;20091;-74
2023/07/06 11:21:58;;;;;;;1.02;0.43;;;22.60;96.60;;;;;;4375009;32;20487;-75
2023/07/06 11:24:29;;;;;;;0.30;0.30;;;22.30;97.00;;;;;;4376667;32;20544;-73
2023/07/06 11:27:04;;;;;;;0.20;0.20;;;22.30;97.10;;;;;;4376429;32;20499;-73
2023/07/06 11:29:30;;;;;;;0.20;0.20;;;22.50;98.10;;;;;;4375963;32;20070;-75
2023/07/06 11:32:06;;;;;;;1.45;0.93;;;23.30;96.00;;;;;;4374932;32;20070;-72
2023/07/06 11:35:12;;;;;;;0.20;0.20;;;24.30;94.20;;;;;;4375901;32;20094;-73
2023/07/06 11:38:17;;;;;;;3.85;0.40;;;24.70;93.20;;;;;;4372804;32;20098;-73
2023/07/06 11:41:10;;;;;;;0.20;0.20;;;24.60;92.40;;;;;;4367547;32;20502;-73
2023/07/06 11:43:52;;;;;;;0.30;0.30;;;24.50;93.00;;;;;;4374187;32;20065;-73
2023/07/06 11:46:45;;;;;;;0.10;0.10;;;24.00;93.50;;;;;;4372126;32;93654;-72
2023/07/06 11:49:29;;;;;;;0.20;0.20;;;23.60;94.50;;;;;;4376836;32;21238;-72
2023/07/06 11:51:58;;;;;;;0.10;0.10;;;23.20;94.90;;;;;;4375578;32;20178;-73
2023/07/06 11:54:43;;;;;;;0.73;0.32;;;22.90;95.50;;;;;;4377126;32;20082;-75
2023/07/06 11:57:50;;;;;;;0.20;0.20;;;22.60;96.20;;;;;;4375408;32;20086;-72
2023/07/06 12:01:31;;;;;;;0.65;0.50;;;22.40;95.10;;;;;;4376594;32;20087;-72
2023/07/06 12:03:08;;;;;;;14.25;0.40;;;22.30;96.10;;;;;;4375138;32;20078;-74
2023/07/06 12:05:38;;;;;;;0.20;0.20;;;22.20;96.20;;;;;;4375756;32;20154;-73
2023/07/06 12:08:16;;;;;;;0.40;0.40;;;22.70;96.80;;;;;;4373752;32;20089;-72
2023/07/06 12:10:45;;;;;;;0.08;0.08;;;23.90;94.50;;;;;;4378041;32;20093;-71
2023/07/06 12:13:19;;;;;;;0.20;0.20;;;24.50;92.80;;;;;;4378664;32;20078;-75
2023/07/06 12:15:47;;;;;;;0.20;0.20;;;24.70;93.10;;;;;;4377716;32;20151;-72
2023/07/06 12:18:14;;;;;;;0.25;0.25;;;24.90;92.30;;;;;;4377979;32;20087;-73
2023/07/06 12:20:40;;;;;;;0.15;0.15;;;24.70;92.20;;;;;;4375741;32;20327;-74
2023/07/06 12:23:11;;;;;;;0.20;0.20;;;24.30;93.40;;;;;;4373927;32;20077;-72
2023/07/06 12:25:40;;;;;;;21.52;1.98;;;24.10;93.40;;;;;;4378249;32;20070;-74
2023/07/06 12:28:10;;;;;;;0.20;0.20;;;23.90;93.00;;;;;;4376118;32;20153;-73
2023/07/06 12:30:35;;;;;;;0.60;0.57;;;23.70;93.20;;;;;;4375497;32;21200;-73
2023/07/06 12:33:04;;;;;;;0.47;0.47;;;23.60;92.90;;;;;;4374983;32;20867;-74
2023/07/06 12:35:30;;;;;;;0.10;0.10;;;24.50;92.60;;;;;;4378400;32;20110;-71
2023/07/06 12:37:56;;;;;;;0.15;0.15;;;25.60;91.80;;;;;;4373878;32;20542;-73
2023/07/06 12:40:25;;;;;;;0.10;0.10;;;26.50;88.70;;;;;;4375428;32;20106;-72
2023/07/06 12:42:53;;;;;;;0.00;0.00;;;27.10;86.00;;;;;;4374966;32;20576;-72
2023/07/06 12:45:21;;;;;;;0.00;0.00;;;27.70;84.20;;;;;;4379910;32;20551;-73
2023/07/06 12:47:55;;;;;;;0.00;0.00;;;28.00;81.60;;;;;;4376396;32;20492;-74
2023/07/06 12:50:29;;;;;;;0.00;0.00;;;28.10;79.10;;;;;;4379093;32;20189;-74
2023/07/06 12:53:22;;;;;;;2.00;0.40;;;27.90;79.50;;;;;;4377817;32;20106;-74
2023/07/06 12:55:49;;;;;;;0.00;0.00;;;28.20;79.80;;;;;;4377042;32;20078;-73
2023/07/06 12:58:17;;;;;;;0.00;0.00;;;28.60;80.00;;;;;;4376640;32;20561;-75
2023/07/06 13:00:48;;;;;;;0.10;0.10;;;28.40;77.20;;;;;;4379490;32;20090;-74